ADDS METAR Data INFO
IDs: Format: Raw Decoded Include TAF

Data at: 0748 UTC 21 Jul 2018

PAKK 210656Z AUTO 00000KT 10SM CLR 14/11 A3017 RMK AO2 SLP230 T01390106 PNO $
PAKK 210556Z AUTO 20003KT 10SM CLR 15/11 A3017 RMK AO2 SLP231 6//// T01500111 10161 20144 56003 PNO $
PAKK 210456Z AUTO 19005KT 10SM CLR 16/11 A3017 RMK AO2 SLP231 T01560111 PNO $
PAKK 210356Z AUTO 18006KT 10SM CLR 16/11 A3018 RMK AO2 SLP232 T01610111 PNO $
PAKK 210256Z AUTO 18004KT 10SM CLR 16/10 A3018 RMK AO2 SLP234 6//// T01610100 56009 PNO $
PAKK 210156Z AUTO 18005KT 10SM CLR 16/09 A3019 RMK AO2 SLP237 T01610094 PNO $
PAKK 210056Z AUTO VRB05KT 10SM CLR 16/10 A3020 RMK AO2 SLP240 T01560100 PNO $
PAKK 210029Z AUTO VRB06KT 10SM SCT025 15/10 A3020 RMK AO2 PNO $
PAKK 202356Z AUTO 19007KT 10SM BKN025 15/10 A3021 RMK AO2 SLP243 6//// T01500100 10150 20117 58004 PNO $
PAKK 202349Z AUTO 20007KT 10SM BKN025 15/10 A3021 RMK AO2 PNO $
PAKK 202256Z AUTO 18005KT 10SM FEW004 SCT019 14/11 A3022 RMK AO2 SLP246 T01390106 PNO $
PAKK 202246Z AUTO 17006KT 10SM SCT004 BKN017 13/11 A3022 RMK AO2 PNO $
PAKK 202237Z AUTO 17007KT 10SM BKN004 OVC017 13/11 A3022 RMK AO2 PNO $
PAKK 202156Z AUTO 15006KT 10SM FEW006 OVC015 13/11 A3022 RMK AO2 SLP247 T01280111 PNO $
PAKK 202056Z AUTO 18008KT 10SM SCT004 OVC011 13/12 A3022 RMK AO2 RAE1959B15E54 SLP247 6//// T01280117 53003 PNO $
PAKK 202048Z AUTO 19008KT 3SM -RA BR BKN004 OVC009 12/12 A3022 RMK AO2 RAE1959B15 CIG 002V008 PNO $
PAKK 202046Z AUTO 17006KT 2SM -RA BR SCT004 OVC009 12/12 A3022 RMK AO2 RAE1959B15 CIG 007V012 PNO $
PAKK 202013Z AUTO 18007KT 1 3/4SM BR BKN004 BKN007 OVC015 12/12 A3022 RMK AO2 VIS 3/4V5 RAE1959 PNO $
PAKK 202005Z AUTO 16006KT 4SM BR BKN004 BKN008 OVC015 12/12 A3021 RMK AO2 RAE1959 CIG 002V006 PNO $
PAKK 201958Z AUTO 17006KT 4SM -RA BR SCT004 OVC015 12/12 A3021 RMK AO2 PNO $
PAKK 201956Z AUTO 17006KT 3SM -RA BR BKN004 OVC015 12/12 A3021 RMK AO2 RAE04B28 CIG 002V009 SLP245 T01220117 PNO $
PAKK 201946Z AUTO 18004KT 2SM -RA BR BKN006 OVC017 12/12 A3021 RMK AO2 VIS 1 1/2V3 RAE04B28 CIG 002V010 PNO $
PAKK 201931Z AUTO 17005KT 1 3/4SM -RA BR BKN007 BKN011 OVC017 12/11 A3021 RMK AO2 VIS 1V5 RAE04B28 CIG 004V010 PNO $
PAKK 201856Z AUTO 21005KT 7SM -RA BKN007 OVC013 12/11 A3021 RMK AO2 CIG 003V010 SLP243 T01220111 PNO $
PAKK 201834Z AUTO 20006KT 4SM -RA BR BKN004 OVC007 12/12 A3021 RMK AO2 PNO $
PAKK 201818Z AUTO 16006KT 2 1/2SM -RA BR BKN004 BKN009 OVC016 12/11 A3021 RMK AO2 VIS 1 1/2V5 PNO $
PAKK 201807Z AUTO 17005KT 7SM -RA SCT004 BKN011 OVC018 12/11 A3021 RMK AO2 CIG 006V013 PNO $
PAKK 201758Z AUTO 18004KT 2SM -RA BR SCT006 OVC011 12/11 A3021 RMK AO2 PNO $
PAKK 201756Z AUTO 18005KT 1 3/4SM -RA BR SCT006 OVC010 12/11 A3021 RMK AO2 RAB50 CIG 009V013 SLP244 6//// T01170111 10122 20111 50002 PNO $
PAKK 201753Z AUTO 19005KT 1 3/4SM -RA BR SCT006 OVC011 12/11 A3021 RMK AO2 VIS 1V3 RAB50 CIG 009V015 PNO $
PAKK 201749Z AUTO 18006KT 2 1/2SM BR FEW004 OVC009 12/11 A3021 RMK AO2 VIS 1V5 CIG 006V013 PNO $
PAKK 201735Z AUTO 18006KT 5SM BR SCT009 OVC015 12/11 A3021 RMK AO2 PNO $
PAKK 201714Z AUTO 18005KT 8SM OVC015 12/11 A3021 RMK AO2 PNO $
PAKK 201656Z AUTO 21005KT 7SM BKN013 OVC018 12/11 A3021 RMK AO2 SLP244 T01220106 PNO $
PAKK 201556Z AUTO 00000KT 10SM FEW008 OVC016 12/11 A3021 RMK AO2 SLP244 T01170111 PNO $
PAKK 201549Z AUTO VRB03KT 10SM FEW008 OVC014 12/11 A3021 RMK AO2 PNO $
PAKK 201541Z AUTO 24003KT 4SM BR BKN008 OVC014 11/11 A3021 RMK AO2 CIG 006V011 PNO $
PAKK 201456Z AUTO 00000KT 9SM OVC010 12/11 A3021 RMK AO2 SLP243 6//// T01170111 58003 PNO $
PAKK 201416Z AUTO 00000KT 7SM SCT008 OVC012 11/11 A3021 RMK AO2 PNO $
PAKK 201407Z AUTO 00000KT 2SM BR OVC008 11/11 A3021 RMK AO2 CIG 004V011 PNO $
PAKK 201356Z AUTO 00000KT 8SM OVC008 11/11 A3021 RMK AO2 RAE15B37E48 CIG 006V011 SLP244 T01110106 PNO $
PAKK 201322Z AUTO 00000KT 5SM BR OVC008 11/11 A3021 RMK AO2 RAE15 CIG 006V011 PNO $
PAKK 201310Z AUTO 00000KT 3SM -RA BR OVC010 11/11 A3021 RMK AO2 CIG 006V012 PNO $
PAKK 201300Z AUTO 00000KT 1 3/4SM -RA BR OVC010 12/11 A3021 RMK AO2 VIS 1 1/4V2 1/2 CIG 006V013 PNO $
PAKK 201256Z AUTO 00000KT 3SM -RA BR OVC010 12/11 A3021 RMK AO2 RAB54 CIG 007V015 SLP244 T01170106 PNO $
PAKK 201221Z AUTO 25003KT 9SM BKN012 OVC017 11/11 A3021 RMK AO2 PNO $
PAKK 201156Z AUTO 24003KT 10SM OVC015 12/11 A3021 RMK AO2 RAE25 SLP245 6//// 7//// T01170111 10133 20117 58001 PNO $
PAKK 201148Z AUTO 23003KT 10SM OVC015 12/11 A3021 RMK AO2 RAE25 PNO $
PAKK 201103Z AUTO 24005KT 7SM -RA OVC013 12/11 A3022 RMK AO2 PNO $
PAKK 201056Z AUTO 24003KT 5SM -RA BR OVC015 12/11 A3022 RMK AO2 RAB56 SLP247 T01170106 PNO $
PAKK 201041Z AUTO VRB04KT 10SM SCT007 OVC015 12/11 A3022 RMK AO2 PNO $
PAKK 201011Z AUTO 20003KT 9SM SCT007 OVC015 12/11 A3022 RMK AO2 PNO $
PAKK 200956Z AUTO 25003KT 9SM BKN015 OVC021 12/11 A3022 RMK AO2 SLP248 T01220106 PNO $
PAKK 200856Z AUTO 26003KT 10SM BKN021 OVC027 12/11 A3022 RMK AO2 SLP246 6//// T01220106 401390100 53005 PNO $
PAKK 200842Z AUTO 26005KT 10SM BKN021 BKN025 OVC030 12/11 A3021 RMK AO2 PNO $
PAKK 200823Z AUTO 23003KT 10SM OVC030 12/11 A3022 RMK AO2 PNO $
PAKK 200756Z AUTO 23004KT 10SM OVC022 12/11 A3021 RMK AO2 SLP245 T01220106 PNO $
PAKK 200717Z AUTO 22003KT 10SM FEW017 BKN025 OVC033 13/11 A3020 RMK AO2 PNO $
PAKK 200656Z AUTO 21005KT 10SM FEW020 OVC033 13/11 A3020 RMK AO2 SLP241 T01280106 PNO $
PAKK 200652Z AUTO 21006KT 10SM SCT020 OVC033 13/11 A3020 RMK AO2 PNO $
PAKK 200556Z AUTO 20006KT 10SM BKN018 OVC032 13/11 A3020 RMK AO2 SLP241 6//// T01330106 10133 20122 55000 PNO $
PAKK 200536Z AUTO 20007KT 10SM OVC018 13/11 A3020 RMK AO2 PNO $
PAKK 200456Z AUTO 20005KT 10SM OVC016 13/11 A3020 RMK AO2 SLP240 T01330111 PNO $
PAKK 200356Z AUTO 22005KT 10SM OVC014 12/11 A3020 RMK AO2 RAB00E39 SLP241 T01220111 PNO $
PAKK 200303Z AUTO 20004KT 4SM -RA BR BKN012 OVC021 12/11 A3020 RMK AO2 RAB00 PNO $
PAKK 200256Z AUTO 21005KT 10SM SCT012 OVC019 13/11 A3020 RMK AO2 SLP241 6//// T01280111 51003 PNO $
PAKK 200156Z AUTO VRB04KT 10SM OVC017 13/11 A3020 RMK AO2 RAB14E26 SLP241 T01330111 PNO $
PAKK 200056Z AUTO 21005KT 10SM BKN015 OVC020 13/11 A3020 RMK AO2 RAB12E39 SLP240 T01280106 PNO $
PAKK 200047Z AUTO 21004KT 10SM FEW015 BKN020 OVC032 13/11 A3020 RMK AO2 RAB12E39 PNO $
PAKK 200038Z AUTO VRB04KT 10SM -RA BKN014 OVC022 12/11 A3020 RMK AO2 RAB12 PNO $
PAKK 192356Z AUTO 21006KT 10SM FEW008 BKN022 OVC028 13/11 A3019 RMK AO2 SLP238 6//// T01280106 10139 20122 51010 PNO $
PAKK 192334Z AUTO 20004KT 10SM FEW008 BKN020 OVC031 13/11 A3019 RMK AO2 PNO $
PAKK 192256Z AUTO 19007KT 10SM SCT021 OVC028 13/11 A3018 RMK AO2 SLP235 T01280106 PNO $
PAKK 192156Z AUTO 21006KT 10SM BKN022 OVC028 13/09 A3018 RMK AO2 SLP232 T01280089 PNO $
PAKK 192042Z AUTO 25007KT 10SM BKN026 OVC100 13/08 A3016 RMK AO2 PNO $
PAKK 192021Z AUTO 24009G14KT 10SM FEW024 SCT031 BKN100 14/08 A3015 RMK AO2 PNO $
PAKK 191956Z AUTO 24008KT 10SM BKN026 OVC034 14/09 A3015 RMK AO2 SLP223 T01390089 PNO $
PAKK 191952Z AUTO 22006KT 10SM BKN026 BKN034 OVC070 14/09 A3015 RMK AO2 PNO $